Time;durP1;ratioP1;P1;durP2;ratioP2;P2;SDS_P1;SDS_P2;PMS_P1;PMS_P2;Temp;Humidity;BMP_temperature;BMP_pressure;BME280_temperature;BME280_humidity;BME280_pressure;Samples;Min_cycle;Max_cycle;Signal;HPM_P1;HPM_P2
2023/12/11 00:00:10;;;;;;;45.65;4.53;;;8.50;99.90;;;;;;5174957;27;20092;-85
2023/12/11 00:02:36;;;;;;;34.28;4.18;;;8.50;99.90;;;;;;5174397;27;20042;-85
2023/12/11 00:05:02;;;;;;;32.15;4.07;;;8.40;99.90;;;;;;5175052;27;20042;-84
2023/12/11 00:07:28;;;;;;;33.05;3.97;;;8.40;99.90;;;;;;5175439;27;20088;-84
2023/12/11 00:09:54;;;;;;;34.13;4.35;;;8.40;99.90;;;;;;5156223;27;20531;-84
2023/12/11 00:12:19;;;;;;;34.42;4.18;;;8.30;99.90;;;;;;5138887;27;20045;-84
2023/12/11 00:14:45;;;;;;;31.00;3.95;;;8.30;99.90;;;;;;5138536;27;20050;-84
2023/12/11 00:17:11;;;;;;;29.38;4.47;;;8.20;99.90;;;;;;5174809;27;20203;-84
2023/12/11 00:19:36;;;;;;;28.92;4.38;;;8.20;99.90;;;;;;5174331;27;20038;-84
2023/12/11 00:22:02;;;;;;;32.45;4.05;;;8.20;99.90;;;;;;5156396;27;20113;-83
2023/12/11 00:24:31;;;;;;;30.75;3.60;;;8.20;99.90;;;;;;5174848;27;20038;-84
2023/12/11 00:26:57;;;;;;;34.65;4.65;;;8.10;99.90;;;;;;5156549;27;20045;-83
2023/12/11 00:29:22;;;;;;;34.92;5.03;;;8.10;99.90;;;;;;5155764;27;20490;-84
2023/12/11 00:31:48;;;;;;;36.80;4.47;;;8.00;99.90;;;;;;5156121;27;20367;-83
2023/12/11 00:34:14;;;;;;;41.63;4.55;;;8.00;99.90;;;;;;5138590;27;20099;-84
2023/12/11 00:36:42;;;;;;;37.38;5.95;;;8.00;99.90;;;;;;5155977;27;20050;-85
2023/12/11 00:39:08;;;;;;;41.20;5.35;;;8.00;99.90;;;;;;5156007;27;20086;-85
2023/12/11 00:41:34;;;;;;;35.20;4.28;;;8.00;99.90;;;;;;5155776;27;20085;-84
2023/12/11 00:43:59;;;;;;;40.65;6.10;;;7.90;99.90;;;;;;5174664;27;20038;-84
2023/12/11 00:46:25;;;;;;;37.38;5.28;;;7.90;99.90;;;;;;5155572;27;20043;-84
2023/12/11 00:48:51;;;;;;;47.80;5.65;;;7.90;99.90;;;;;;5155497;27;20046;-84
2023/12/11 00:51:18;;;;;;;39.67;4.55;;;7.90;99.90;;;;;;5151580;27;20397;-84
2023/12/11 00:53:45;;;;;;;43.10;4.93;;;7.90;99.90;;;;;;5152382;27;20062;-85
2023/12/11 00:56:11;;;;;;;40.78;4.90;;;7.90;99.90;;;;;;5153861;27;20394;-84
2023/12/11 00:58:37;;;;;;;42.17;5.30;;;7.90;99.90;;;;;;5157641;27;20035;-84
2023/12/11 01:01:03;;;;;;;35.97;4.65;;;7.90;99.90;;;;;;5155766;27;20042;-84
2023/12/11 01:03:28;;;;;;;41.53;5.20;;;7.90;99.90;;;;;;5155840;27;20051;-84
2023/12/11 01:05:54;;;;;;;49.83;5.90;;;7.90;99.90;;;;;;5156500;27;20054;-84
2023/12/11 01:08:20;;;;;;;44.67;5.75;;;8.00;99.90;;;;;;5157101;27;20383;-84
2023/12/11 01:10:45;;;;;;;47.05;5.80;;;8.00;99.90;;;;;;5157275;27;20058;-84
2023/12/11 01:13:11;;;;;;;58.45;7.20;;;8.00;99.90;;;;;;5155844;27;20475;-85
2023/12/11 01:15:37;;;;;;;45.40;6.32;;;8.00;99.90;;;;;;5156785;27;20464;-85
2023/12/11 01:18:03;;;;;;;44.47;5.93;;;8.00;99.90;;;;;;5155411;27;20066;-85
2023/12/11 01:20:29;;;;;;;44.45;6.43;;;8.00;99.90;;;;;;5156934;27;20119;-84
2023/12/11 01:22:54;;;;;;;41.60;6.78;;;8.10;99.90;;;;;;5155972;27;20035;-84
2023/12/11 01:25:20;;;;;;;44.60;5.65;;;8.10;99.90;;;;;;5155254;27;20518;-85
2023/12/11 01:27:46;;;;;;;53.72;7.30;;;8.20;99.90;;;;;;5156875;27;20039;-84
2023/12/11 01:30:11;;;;;;;45.22;5.80;;;8.20;99.90;;;;;;5156392;27;20047;-84
2023/12/11 01:32:38;;;;;;;49.40;6.10;;;8.20;99.90;;;;;;5155409;27;20080;-84
2023/12/11 01:35:04;;;;;;;38.13;6.32;;;8.30;99.90;;;;;;5155366;27;20038;-84
2023/12/11 01:37:29;;;;;;;55.45;6.35;;;8.30;99.90;;;;;;5155320;27;20042;-84
2023/12/11 01:39:55;;;;;;;44.70;6.43;;;8.30;99.90;;;;;;5155434;27;20406;-84
2023/12/11 01:42:21;;;;;;;42.08;5.75;;;8.30;99.90;;;;;;5138216;27;20050;-84
2023/12/11 01:44:46;;;;;;;51.72;6.38;;;8.40;99.90;;;;;;5155155;27;20078;-85
2023/12/11 01:47:12;;;;;;;51.08;6.07;;;8.40;99.90;;;;;;5154954;27;20070;-84
2023/12/11 01:49:38;;;;;;;53.35;6.75;;;8.40;99.90;;;;;;5154508;27;20129;-85
2023/12/11 01:52:07;;;;;;;37.67;4.50;;;8.40;99.90;;;;;;5155131;27;21016;-85
2023/12/11 01:54:34;;;;;;;37.85;5.97;;;8.40;99.90;;;;;;5155450;27;20050;-84
2023/12/11 01:57:00;;;;;;;42.05;5.60;;;8.40;99.90;;;;;;5155292;27;20047;-84
2023/12/11 01:59:27;;;;;;;36.05;5.03;;;8.30;99.90;;;;;;5156268;27;20041;-84
2023/12/11 02:01:54;;;;;;;41.95;5.75;;;8.40;99.90;;;;;;5156134;27;20034;-84
2023/12/11 02:04:19;;;;;;;53.22;6.18;;;8.40;99.90;;;;;;5137099;27;20046;-84
2023/12/11 02:06:45;;;;;;;40.90;6.32;;;8.40;99.90;;;;;;5156459;27;20038;-84
2023/12/11 02:09:12;;;;;;;36.33;5.57;;;8.50;99.90;;;;;;5155863;27;20042;-84
2023/12/11 02:11:37;;;;;;;44.28;6.13;;;8.50;99.90;;;;;;5155785;27;20038;-84
2023/12/11 02:14:04;;;;;;;46.40;6.22;;;8.50;99.90;;;;;;5154643;27;20047;-84
2023/12/11 02:16:29;;;;;;;43.40;5.70;;;8.50;99.90;;;;;;5137558;27;20402;-85
2023/12/11 02:18:55;;;;;;;46.83;7.10;;;8.50;99.90;;;;;;5155471;27;20042;-85
2023/12/11 02:21:21;;;;;;;39.90;5.53;;;8.60;99.90;;;;;;5154445;27;20139;-84
2023/12/11 02:23:46;;;;;;;41.35;5.15;;;8.50;99.90;;;;;;5153606;27;20038;-84
2023/12/11 02:26:13;;;;;;;32.58;4.32;;;8.50;99.90;;;;;;5154435;27;20478;-85
2023/12/11 02:28:39;;;;;;;33.08;3.92;;;8.50;99.90;;;;;;5154356;27;20049;-84
2023/12/11 02:31:05;;;;;;;23.75;3.60;;;8.50;99.90;;;;;;5154546;27;20043;-84
2023/12/11 02:33:31;;;;;;;29.75;4.07;;;8.50;99.90;;;;;;5136936;27;20046;-84
2023/12/11 02:35:57;;;;;;;33.75;3.42;;;8.50;99.90;;;;;;5154317;27;20134;-84
2023/12/11 02:38:23;;;;;;;40.30;4.43;;;8.40;99.90;;;;;;5136716;27;20091;-85
2023/12/11 02:40:48;;;;;;;25.08;5.28;;;8.40;99.90;;;;;;5155298;27;20125;-84
2023/12/11 02:43:14;;;;;;;44.90;5.63;;;8.40;99.90;;;;;;5154412;27;20125;-84
2023/12/11 02:45:42;;;;;;;43.05;6.03;;;8.50;99.90;;;;;;5136714;27;20133;-84
2023/12/11 02:48:08;;;;;;;42.38;7.00;;;8.50;99.90;;;;;;5154060;27;20042;-85
2023/12/11 02:50:34;;;;;;;45.40;7.03;;;8.60;99.90;;;;;;5156138;27;20077;-85
2023/12/11 02:53:02;;;;;;;42.95;5.63;;;8.60;99.90;;;;;;5157170;27;20054;-85
2023/12/11 02:55:28;;;;;;;40.60;5.78;;;8.60;99.90;;;;;;5176069;27;20039;-84
2023/12/11 02:57:57;;;;;;;43.00;6.00;;;8.70;99.90;;;;;;5157239;27;20057;-85
2023/12/11 03:00:23;;;;;;;41.72;7.85;;;8.70;99.90;;;;;;5175917;27;20046;-85
2023/12/11 03:02:49;;;;;;;38.03;6.28;;;8.80;99.90;;;;;;5175807;27;20125;-84
2023/12/11 03:05:14;;;;;;;35.97;6.63;;;8.80;99.90;;;;;;5156973;27;20042;-85
2023/12/11 03:07:40;;;;;;;47.65;7.50;;;8.80;99.90;;;;;;5175881;27;20049;-85
2023/12/11 03:10:06;;;;;;;50.55;7.07;;;8.70;99.90;;;;;;5156763;27;20038;-84
2023/12/11 03:12:32;;;;;;;53.42;7.10;;;8.70;99.90;;;;;;5156714;27;20093;-84
2023/12/11 03:14:58;;;;;;;48.67;6.85;;;8.80;99.90;;;;;;5156943;27;20046;-84
2023/12/11 03:17:23;;;;;;;54.58;7.15;;;8.80;99.90;;;;;;5139759;27;20128;-85
2023/12/11 03:19:49;;;;;;;59.78;8.20;;;8.80;99.90;;;;;;5156100;27;20137;-84
2023/12/11 03:22:15;;;;;;;41.28;6.88;;;8.80;99.90;;;;;;5175059;27;20046;-84
2023/12/11 03:24:41;;;;;;;53.28;7.65;;;8.80;99.90;;;;;;5175347;27;20073;-85
2023/12/11 03:27:06;;;;;;;54.30;6.72;;;8.80;99.90;;;;;;5156327;27;20042;-84
2023/12/11 03:29:32;;;;;;;49.33;7.18;;;8.80;99.90;;;;;;5139339;27;20133;-87
2023/12/11 03:31:58;;;;;;;40.75;6.13;;;8.80;99.90;;;;;;5139166;27;20081;-84
2023/12/11 03:34:23;;;;;;;43.08;6.60;;;8.80;99.90;;;;;;5156810;27;20050;-84
2023/12/11 03:36:49;;;;;;;51.10;6.22;;;8.90;99.90;;;;;;5156322;27;20098;-85
2023/12/11 03:39:15;;;;;;;39.63;6.53;;;8.90;99.90;;;;;;5175416;27;20125;-83
2023/12/11 03:41:41;;;;;;;48.53;7.18;;;8.80;99.90;;;;;;5174855;27;20114;-83
2023/12/11 03:44:07;;;;;;;43.08;7.15;;;8.80;99.90;;;;;;5175044;27;20491;-83
2023/12/11 03:46:32;;;;;;;49.85;6.03;;;8.80;99.90;;;;;;5156423;27;20070;-84
2023/12/11 03:48:58;;;;;;;36.85;7.13;;;8.80;99.90;;;;;;5174448;27;20098;-83
2023/12/11 03:51:24;;;;;;;43.08;5.95;;;8.90;99.90;;;;;;5156155;27;20043;-83
2023/12/11 03:53:49;;;;;;;47.25;7.00;;;8.80;99.90;;;;;;5156388;27;20078;-84
2023/12/11 03:56:15;;;;;;;56.22;7.60;;;8.80;99.90;;;;;;5156550;27;20049;-84
2023/12/11 03:58:40;;;;;;;50.72;7.13;;;8.80;99.90;;;;;;5155999;27;20045;-83
2023/12/11 04:01:06;;;;;;;53.33;7.50;;;8.80;99.90;;;;;;5156480;27;20078;-84
2023/12/11 04:03:32;;;;;;;45.30;6.82;;;8.80;99.90;;;;;;5155934;27;20039;-84
2023/12/11 04:05:58;;;;;;;50.97;6.90;;;8.80;99.90;;;;;;5175025;27;20463;-84
2023/12/11 04:08:24;;;;;;;48.85;6.28;;;8.80;99.90;;;;;;5156722;27;20042;-84
2023/12/11 04:10:49;;;;;;;42.83;6.30;;;8.80;99.90;;;;;;5175047;27;20099;-85
2023/12/11 04:13:15;;;;;;;56.63;7.07;;;8.80;99.90;;;;;;5156288;27;20494;-84
2023/12/11 04:15:41;;;;;;;50.03;6.80;;;8.80;99.90;;;;;;5174413;27;20078;-84
2023/12/11 04:18:07;;;;;;;41.75;5.70;;;8.80;99.90;;;;;;5155676;27;20471;-84
2023/12/11 04:20:33;;;;;;;48.33;6.95;;;8.80;99.90;;;;;;5174708;27;20050;-84
2023/12/11 04:22:58;;;;;;;34.90;5.70;;;8.90;99.90;;;;;;5156372;27;20035;-83
2023/12/11 04:25:24;;;;;;;56.15;7.03;;;8.90;99.90;;;;;;5156110;27;20050;-84
2023/12/11 04:27:50;;;;;;;52.42;7.38;;;8.80;99.90;;;;;;5174346;27;20442;-83
2023/12/11 04:30:15;;;;;;;51.63;6.50;;;8.80;99.90;;;;;;5155469;27;20049;-84
2023/12/11 04:32:41;;;;;;;41.95;5.97;;;8.80;99.90;;;;;;5159644;27;20057;-83
2023/12/11 04:35:07;;;;;;;50.88;6.57;;;8.80;99.90;;;;;;5160008;27;20041;-84
2023/12/11 04:37:33;;;;;;;43.28;6.50;;;8.80;99.90;;;;;;5159821;27;20041;-84
2023/12/11 04:39:59;;;;;;;47.92;7.10;;;8.70;99.90;;;;;;5159965;27;20039;-86
2023/12/11 04:42:24;;;;;;;51.92;6.80;;;8.80;99.90;;;;;;5178614;27;20026;-85
2023/12/11 04:44:50;;;;;;;49.63;6.88;;;8.80;99.90;;;;;;5159622;27;20091;-84
2023/12/11 04:47:16;;;;;;;52.03;6.70;;;8.70;99.90;;;;;;5159991;27;20034;-84
2023/12/11 04:49:42;;;;;;;54.72;6.63;;;8.70;99.90;;;;;;5159451;27;20081;-84
2023/12/11 04:52:08;;;;;;;50.22;7.03;;;8.70;99.90;;;;;;5142139;27;20064;-84
2023/12/11 04:54:34;;;;;;;42.92;6.10;;;8.30;99.90;;;;;;5159480;27;20493;-84
2023/12/11 04:57:00;;;;;;;44.50;6.80;;;8.70;99.90;;;;;;5159509;27;20132;-85
2023/12/11 04:59:25;;;;;;;40.35;5.95;;;8.70;99.90;;;;;;5159639;27;20121;-84
2023/12/11 05:01:51;;;;;;;43.33;5.88;;;9.10;99.90;;;;;;5178407;27;20494;-84
2023/12/11 05:04:17;;;;;;;43.03;5.88;;;8.60;99.90;;;;;;5159409;27;20078;-87
2023/12/11 05:06:43;;;;;;;39.08;5.88;;;8.70;99.90;;;;;;5178246;27;20125;-85
2023/12/11 05:09:09;;;;;;;47.33;6.45;;;8.70;99.90;;;;;;5159165;27;20053;-85
2023/12/11 05:11:35;;;;;;;38.45;5.65;;;8.70;99.90;;;;;;5178135;27;20038;-86
2023/12/11 05:14:01;;;;;;;47.08;5.30;;;8.70;99.90;;;;;;5141983;27;20049;-85
2023/12/11 05:16:27;;;;;;;45.22;6.03;;;8.60;99.90;;;;;;5159558;27;20133;-85
2023/12/11 05:18:52;;;;;;;38.28;5.30;;;8.70;99.90;;;;;;5158678;27;20162;-85
2023/12/11 05:21:18;;;;;;;47.83;6.47;;;8.70;99.90;;;;;;5177813;27;20038;-86
2023/12/11 05:23:44;;;;;;;41.65;4.90;;;8.70;99.90;;;;;;5177812;27;20043;-85
2023/12/11 05:26:09;;;;;;;37.72;6.20;;;8.80;99.90;;;;;;5177705;27;20073;-85
2023/12/11 05:28:35;;;;;;;46.72;6.65;;;8.80;99.90;;;;;;5177779;27;20037;-85
2023/12/11 05:31:01;;;;;;;41.55;5.68;;;8.70;99.90;;;;;;5177566;27;20094;-85
2023/12/11 05:33:27;;;;;;;43.80;6.45;;;8.70;99.90;;;;;;5158549;27;20076;-85
2023/12/11 05:35:52;;;;;;;37.75;5.13;;;8.70;99.90;;;;;;5158888;27;20451;-85
2023/12/11 05:38:18;;;;;;;39.10;6.57;;;8.70;99.90;;;;;;5158504;27;20849;-85
2023/12/11 05:40:45;;;;;;;42.20;5.93;;;8.70;99.90;;;;;;5177487;27;20034;-84
2023/12/11 05:43:10;;;;;;;46.08;6.18;;;8.70;99.90;;;;;;5158661;27;20046;-84
2023/12/11 05:45:36;;;;;;;40.10;5.72;;;8.70;99.90;;;;;;5176979;27;20534;-84
2023/12/11 05:48:02;;;;;;;36.78;6.10;;;8.70;99.90;;;;;;5158537;27;20095;-85
2023/12/11 05:50:28;;;;;;;37.25;6.22;;;8.70;99.90;;;;;;5158124;27;20034;-85
2023/12/11 05:52:54;;;;;;;43.13;7.07;;;8.70;99.90;;;;;;5141257;27;20049;-85
2023/12/11 05:55:19;;;;;;;49.85;6.00;;;8.70;99.90;;;;;;5158576;27;20073;-84
2023/12/11 05:57:45;;;;;;;35.05;6.40;;;8.70;99.90;;;;;;5158597;27;20050;-84
2023/12/11 06:00:14;;;;;;;38.88;6.15;;;8.70;99.90;;;;;;5158344;27;20030;-84
2023/12/11 06:02:39;;;;;;;42.33;6.35;;;8.70;99.90;;;;;;5176289;27;20042;-84
2023/12/11 06:05:06;;;;;;;46.90;5.40;;;8.80;99.90;;;;;;5158584;27;20053;-84
2023/12/11 06:07:32;;;;;;;40.88;7.18;;;8.80;99.90;;;;;;5140675;27;20502;-83
2023/12/11 06:09:58;;;;;;;38.97;5.80;;;8.70;99.90;;;;;;5157534;27;20117;-83
2023/12/11 06:12:23;;;;;;;34.08;5.75;;;8.70;99.90;;;;;;5158213;27;20390;-84
2023/12/11 06:14:49;;;;;;;43.90;5.85;;;8.70;99.90;;;;;;5158593;27;20110;-83
2023/12/11 06:17:15;;;;;;;40.10;5.30;;;8.70;99.90;;;;;;5176605;27;20453;-83
2023/12/11 06:19:42;;;;;;;48.13;5.53;;;8.70;99.90;;;;;;5176462;27;20070;-83
2023/12/11 06:22:08;;;;;;;38.10;5.43;;;8.60;99.90;;;;;;5140537;27;20094;-83
2023/12/11 06:24:34;;;;;;;49.00;6.03;;;8.60;99.90;;;;;;5176123;27;20046;-84
2023/12/11 06:26:59;;;;;;;31.30;4.22;;;8.60;99.90;;;;;;5140760;27;20077;-83
2023/12/11 06:29:25;;;;;;;33.47;4.45;;;8.60;99.90;;;;;;5176479;27;20046;-83
2023/12/11 06:31:51;;;;;;;36.85;5.25;;;8.60;99.90;;;;;;5157478;27;20046;-83
2023/12/11 06:34:17;;;;;;;36.10;5.18;;;8.60;99.90;;;;;;5176453;27;20049;-83
2023/12/11 06:36:43;;;;;;;31.23;4.43;;;8.60;99.90;;;;;;5156989;27;20038;-83
2023/12/11 06:39:08;;;;;;;39.47;4.93;;;8.60;99.90;;;;;;5175984;27;20049;-85
2023/12/11 06:41:37;;;;;;;37.15;4.10;;;8.60;99.90;;;;;;5157631;27;20419;-84
2023/12/11 06:44:03;;;;;;;31.13;4.47;;;8.60;99.90;;;;;;5157295;27;20486;-85
2023/12/11 06:46:29;;;;;;;35.85;5.32;;;8.60;99.90;;;;;;5157792;27;20175;-85
2023/12/11 06:48:58;;;;;;;32.42;4.97;;;8.50;99.90;;;;;;5139822;27;20073;-84
2023/12/11 06:51:24;;;;;;;33.25;4.72;;;8.50;99.90;;;;;;5156757;27;20046;-84
2023/12/11 06:53:51;;;;;;;34.95;4.82;;;8.10;99.90;;;;;;5138828;27;20050;-87
2023/12/11 06:56:20;;;;;;;38.70;5.35;;;8.60;99.90;;;;;;5155723;27;20121;-85
2023/12/11 06:58:46;;;;;;;36.58;5.00;;;8.50;99.90;;;;;;5175692;27;20446;-84
2023/12/11 07:01:13;;;;;;;38.72;4.95;;;8.50;99.90;;;;;;5140050;27;20038;-85
2023/12/11 07:03:42;;;;;;;31.75;4.35;;;8.50;99.90;;;;;;5157038;27;20035;-85
2023/12/11 07:06:09;;;;;;;25.35;3.75;;;8.50;99.90;;;;;;5175147;27;20114;-85
2023/12/11 07:08:36;;;;;;;37.47;4.90;;;8.50;99.90;;;;;;5156856;27;20421;-85
2023/12/11 07:11:02;;;;;;;33.50;5.28;;;8.50;99.90;;;;;;5175463;27;20038;-87
2023/12/11 07:13:28;;;;;;;36.00;4.97;;;8.50;99.90;;;;;;5157021;27;20064;-85
2023/12/11 07:15:54;;;;;;;41.10;6.40;;;8.50;99.90;;;;;;5175956;27;20046;-85
2023/12/11 07:18:21;;;;;;;29.75;3.78;;;8.50;99.90;;;;;;5157141;27;20102;-86
2023/12/11 07:20:47;;;;;;;46.42;4.22;;;8.40;99.90;;;;;;5156439;27;20045;-84
2023/12/11 07:23:13;;;;;;;39.33;4.50;;;8.50;99.90;;;;;;5139518;27;20043;-84
2023/12/11 07:25:39;;;;;;;42.28;4.30;;;8.40;99.90;;;;;;5175631;27;20054;-84
2023/12/11 07:28:05;;;;;;;34.38;4.30;;;8.50;99.90;;;;;;5139006;27;20042;-84
2023/12/11 07:30:31;;;;;;;31.52;5.25;;;8.40;99.90;;;;;;5175709;27;20042;-84
2023/12/11 07:32:57;;;;;;;36.25;4.97;;;8.50;99.90;;;;;;5156849;27;20474;-83
2023/12/11 07:35:24;;;;;;;37.30;4.75;;;8.50;99.90;;;;;;5139538;27;20046;-84
2023/12/11 07:37:51;;;;;;;31.40;4.13;;;8.50;99.90;;;;;;5175347;27;20073;-84
2023/12/11 07:40:17;;;;;;;26.17;4.03;;;8.50;99.90;;;;;;5156759;27;20038;-84
2023/12/11 07:42:43;;;;;;;26.13;3.83;;;8.50;99.90;;;;;;5156221;27;20565;-85
2023/12/11 07:45:11;;;;;;;30.17;3.55;;;8.50;99.90;;;;;;5156194;27;20596;-84
2023/12/11 07:47:37;;;;;;;33.83;3.60;;;8.50;99.90;;;;;;5156328;27;20034;-83
2023/12/11 07:50:03;;;;;;;27.92;3.08;;;8.40;99.90;;;;;;5174247;27;20050;-84
2023/12/11 07:52:30;;;;;;;28.58;3.55;;;8.40;99.90;;;;;;5174986;27;20062;-85
2023/12/11 07:54:56;;;;;;;23.88;3.63;;;8.40;99.90;;;;;;5155312;27;20049;-84
2023/12/11 07:57:26;;;;;;;26.83;3.47;;;8.50;99.90;;;;;;5174369;27;20035;-84
2023/12/11 07:59:52;;;;;;;24.27;3.72;;;8.40;99.90;;;;;;5174461;27;20038;-85
2023/12/11 08:02:18;;;;;;;25.98;3.60;;;8.50;99.90;;;;;;5156666;27;20367;-88
2023/12/11 08:04:44;;;;;;;23.30;3.55;;;8.50;99.90;;;;;;5175134;27;20067;-84
2023/12/11 08:07:12;;;;;;;27.25;3.85;;;8.50;99.90;;;;;;5178066;27;20038;-84
2023/12/11 08:09:37;;;;;;;23.45;3.60;;;8.50;99.90;;;;;;5160123;27;20044;-83
2023/12/11 08:12:04;;;;;;;25.70;4.55;;;8.50;99.90;;;;;;5160166;27;20502;-84
2023/12/11 08:14:29;;;;;;;22.75;3.28;;;8.50;99.90;;;;;;5160088;27;20121;-83
2023/12/11 08:16:55;;;;;;;20.83;2.63;;;8.50;99.90;;;;;;5179430;27;20070;-82
2023/12/11 08:19:21;;;;;;;23.67;2.75;;;8.50;99.90;;;;;;5179022;27;20106;-82
2023/12/11 08:21:46;;;;;;;23.73;3.50;;;8.50;99.90;;;;;;5178980;27;20042;-83
2023/12/11 08:24:12;;;;;;;13.63;2.38;;;8.50;99.90;;;;;;5160305;27;20041;-83
2023/12/11 08:26:38;;;;;;;25.05;3.03;;;8.40;99.90;;;;;;5178032;27;20042;-83
2023/12/11 08:29:04;;;;;;;25.15;4.70;;;8.40;99.90;;;;;;5136759;27;20121;-85
2023/12/11 08:31:30;;;;;;;27.08;4.78;;;8.40;99.90;;;;;;5176711;27;20458;-85
2023/12/11 08:33:56;;;;;;;17.73;2.50;;;8.40;99.90;;;;;;5125646;27;20054;-86
2023/12/11 08:36:22;;;;;;;16.52;2.70;;;8.40;99.90;;;;;;5132008;27;20038;-84
2023/12/11 08:38:48;;;;;;;19.00;2.72;;;8.40;99.90;;;;;;5160087;27;20034;-84
2023/12/11 08:41:14;;;;;;;17.88;2.42;;;8.40;99.90;;;;;;5159922;27;20061;-84
2023/12/11 08:43:40;;;;;;;19.33;2.97;;;8.40;99.90;;;;;;5160133;27;20118;-84
2023/12/11 08:46:06;;;;;;;32.15;4.47;;;8.40;99.90;;;;;;5142752;27;20056;-85
2023/12/11 08:48:32;;;;;;;15.43;2.95;;;8.40;99.90;;;;;;5169626;27;20083;-84
2023/12/11 08:50:57;;;;;;;21.42;3.28;;;8.40;99.90;;;;;;5142641;27;20490;-84
2023/12/11 08:53:23;;;;;;;17.70;2.97;;;8.40;99.90;;;;;;5178546;27;20046;-84
2023/12/11 08:55:50;;;;;;;29.13;2.60;;;8.40;99.90;;;;;;5142581;27;20050;-83
2023/12/11 08:58:16;;;;;;;17.00;3.22;;;8.40;99.90;;;;;;5160004;27;20042;-84
2023/12/11 09:00:43;;;;;;;15.13;2.35;;;8.50;99.90;;;;;;5159924;27;20531;-83
2023/12/11 09:03:09;;;;;;;14.23;1.85;;;8.50;99.90;;;;;;5177769;27;20049;-84
2023/12/11 09:05:35;;;;;;;12.65;2.65;;;8.50;99.90;;;;;;5177929;27;20042;-84
2023/12/11 09:08:01;;;;;;;21.30;3.28;;;8.60;99.90;;;;;;5178161;27;20538;-84
2023/12/11 09:10:26;;;;;;;19.95;2.40;;;8.50;99.90;;;;;;5178201;27;20038;-84
2023/12/11 09:12:53;;;;;;;16.65;2.38;;;8.50;99.90;;;;;;5177923;27;20030;-83
2023/12/11 09:15:19;;;;;;;13.30;2.47;;;8.60;99.90;;;;;;5159409;27;20073;-84
2023/12/11 09:17:45;;;;;;;19.65;2.40;;;8.60;99.90;;;;;;5155874;27;20039;-83
2023/12/11 09:20:11;;;;;;;18.30;2.72;;;8.60;99.90;;;;;;5155472;27;20400;-84
2023/12/11 09:22:40;;;;;;;19.63;3.05;;;8.60;99.90;;;;;;5157076;27;20038;-82
2023/12/11 09:25:06;;;;;;;20.27;3.10;;;8.60;99.90;;;;;;5120512;27;20594;-83
2023/12/11 09:27:32;;;;;;;11.25;2.55;;;8.60;99.90;;;;;;5118006;27;20043;-84
2023/12/11 09:29:57;;;;;;;16.30;3.65;;;8.60;99.90;;;;;;5117865;27;20126;-83
2023/12/11 09:32:23;;;;;;;19.80;2.35;;;8.60;99.90;;;;;;5100595;27;20039;-83
2023/12/11 09:34:49;;;;;;;33.17;3.80;;;8.60;99.90;;;;;;5117603;27;20126;-83
2023/12/11 09:37:19;;;;;;;20.63;3.47;;;8.60;99.90;;;;;;5136022;27;20088;-83
2023/12/11 09:39:47;;;;;;;20.17;3.53;;;8.70;99.90;;;;;;5114184;27;20049;-83
2023/12/11 09:42:17;;;;;;;22.10;3.45;;;8.70;99.90;;;;;;5138002;27;20514;-83
2023/12/11 09:44:45;;;;;;;28.77;4.03;;;8.70;99.90;;;;;;5138153;27;20042;-83
2023/12/11 09:47:16;;;;;;;19.67;3.30;;;8.70;99.90;;;;;;5120815;27;20039;-83
2023/12/11 09:49:41;;;;;;;26.98;3.75;;;8.80;99.90;;;;;;5137650;27;20051;-84
2023/12/11 09:52:07;;;;;;;25.33;3.63;;;8.80;99.90;;;;;;5137670;27;20054;-83
2023/12/11 09:54:33;;;;;;;27.33;3.70;;;8.80;99.90;;;;;;5155848;27;20043;-83
2023/12/11 09:56:59;;;;;;;24.17;3.85;;;8.80;99.90;;;;;;5138018;27;20050;-83
2023/12/11 09:59:27;;;;;;;19.92;3.00;;;8.80;99.90;;;;;;5120971;27;20038;-84
2023/12/11 10:01:54;;;;;;;29.83;4.43;;;8.80;99.90;;;;;;5137603;27;20035;-84
2023/12/11 10:04:19;;;;;;;27.08;3.55;;;8.80;99.90;;;;;;5120536;27;20499;-83
2023/12/11 10:06:45;;;;;;;25.92;3.22;;;8.90;99.90;;;;;;5137647;27;20104;-84
2023/12/11 10:09:30;;;;;;;27.98;3.40;;;9.00;99.90;;;;;;5155514;27;20046;-85
2023/12/11 10:12:00;;;;;;;25.20;3.72;;;9.00;99.90;;;;;;5136936;27;20551;-84
2023/12/11 10:14:28;;;;;;;29.83;3.28;;;9.00;99.90;;;;;;5137550;27;20058;-84
2023/12/11 10:16:54;;;;;;;23.15;3.70;;;9.10;99.90;;;;;;5155868;27;20519;-84
2023/12/11 10:19:33;;;;;;;21.23;2.97;;;9.10;99.90;;;;;;5137485;27;20035;-84
2023/12/11 10:22:00;;;;;;;17.95;3.58;;;9.00;99.90;;;;;;5137279;27;20043;-85
2023/12/11 10:24:26;;;;;;;18.50;3.08;;;9.00;99.90;;;;;;5120468;27;20409;-85
2023/12/11 10:26:56;;;;;;;24.83;2.92;;;9.00;99.90;;;;;;5136696;27;20072;-84
2023/12/11 10:29:24;;;;;;;17.58;2.88;;;9.00;99.90;;;;;;5118940;27;20130;-85
2023/12/11 10:31:52;;;;;;;15.43;2.28;;;9.00;99.90;;;;;;5137111;27;20133;-84
2023/12/11 10:34:18;;;;;;;22.67;2.95;;;9.00;99.90;;;;;;5136921;27;20479;-83
2023/12/11 10:36:49;;;;;;;18.38;2.95;;;9.00;99.90;;;;;;5155350;27;20045;-84
2023/12/11 10:39:14;;;;;;;15.00;1.63;;;9.00;99.90;;;;;;5136987;27;20129;-84
2023/12/11 10:41:40;;;;;;;20.55;2.42;;;9.10;99.90;;;;;;5136607;27;20153;-83
2023/12/11 10:44:06;;;;;;;19.00;3.17;;;9.10;99.90;;;;;;5155356;27;20034;-84
2023/12/11 10:46:32;;;;;;;13.70;3.05;;;9.10;99.90;;;;;;5136349;27;20487;-84
2023/12/11 10:49:00;;;;;;;18.65;2.92;;;9.10;99.90;;;;;;5119684;27;20049;-83
2023/12/11 10:51:27;;;;;;;24.83;3.03;;;9.10;99.90;;;;;;5119657;27;20051;-84
2023/12/11 10:53:53;;;;;;;26.50;2.80;;;9.10;99.90;;;;;;5155108;27;20420;-83
2023/12/11 10:56:19;;;;;;;22.52;3.00;;;9.20;99.90;;;;;;5168554;27;20154;-83
2023/12/11 10:58:45;;;;;;;22.60;2.50;;;9.10;99.90;;;;;;5136148;27;20115;-84
2023/12/11 11:01:12;;;;;;;32.72;4.10;;;9.20;99.90;;;;;;5119390;27;20113;-84
2023/12/11 11:03:38;;;;;;;21.35;2.53;;;9.60;99.90;;;;;;5155158;27;20034;-84
2023/12/11 11:06:06;;;;;;;23.55;2.90;;;9.20;99.90;;;;;;5136257;27;20034;-83
2023/12/11 11:08:35;;;;;;;25.40;3.58;;;9.60;99.90;;;;;;5136251;27;20077;-83
2023/12/11 11:11:23;;;;;;;26.58;2.80;;;9.30;99.90;;;;;;5136370;27;20058;-83
2023/12/11 11:14:23;;;;;;;18.67;2.70;;;9.30;99.90;;;;;;5135885;27;20096;-84
2023/12/11 11:16:56;;;;;;;23.42;2.80;;;9.20;99.90;;;;;;5155038;27;20070;-85
2023/12/11 11:19:22;;;;;;;28.23;3.33;;;9.20;99.90;;;;;;5135495;27;20053;-83
2023/12/11 11:22:08;;;;;;;28.83;3.28;;;9.20;99.90;;;;;;5154669;27;20042;-83
2023/12/11 11:24:35;;;;;;;16.30;2.70;;;9.80;99.90;;;;;;5050713;28;20049;-83
2023/12/11 11:27:02;;;;;;;27.20;2.38;;;9.50;99.90;;;;;;5023618;28;20528;-84
2023/12/11 11:29:41;;;;;;;33.67;3.13;;;9.20;99.90;;;;;;5037262;28;20060;-84
2023/12/11 11:32:07;;;;;;;14.98;2.08;;;9.20;99.90;;;;;;5070612;28;20059;-83
2023/12/11 11:34:42;;;;;;;19.52;2.75;;;9.20;99.90;;;;;;5065607;28;20412;-83
2023/12/11 11:37:09;;;;;;;13.13;1.70;;;9.20;99.90;;;;;;5073214;28;20093;-83
2023/12/11 11:40:13;;;;;;;17.55;2.03;;;9.90;99.90;;;;;;5090183;28;20076;-83
2023/12/11 11:42:39;;;;;;;13.18;2.00;;;9.20;99.90;;;;;;4994599;28;20399;-83
2023/12/11 11:45:07;;;;;;;19.52;1.40;;;9.20;99.90;;;;;;4991223;28;20058;-83
2023/12/11 11:47:34;;;;;;;21.02;2.17;;;9.20;99.90;;;;;;4974687;28;20104;-84
2023/12/11 11:50:12;;;;;;;12.15;1.50;;;9.20;99.90;;;;;;4974820;28;20054;-85
2023/12/11 11:52:41;;;;;;;11.18;1.70;;;9.10;99.90;;;;;;4982142;28;20051;-85
2023/12/11 11:55:17;;;;;;;16.10;1.83;;;9.30;99.90;;;;;;4959268;28;20089;-84
2023/12/11 11:57:43;;;;;;;11.57;1.33;;;9.30;99.90;;;;;;4984078;28;20065;-84
2023/12/11 12:00:09;;;;;;;14.18;1.80;;;9.20;99.90;;;;;;4975491;28;20046;-85
2023/12/11 12:02:35;;;;;;;7.97;1.35;;;9.20;99.90;;;;;;5024316;28;20084;-85
2023/12/11 12:05:10;;;;;;;17.58;1.90;;;9.50;99.90;;;;;;5018014;28;20374;-84
2023/12/11 12:07:39;;;;;;;12.27;1.48;;;9.20;99.90;;;;;;5033463;28;20041;-84
2023/12/11 12:10:07;;;;;;;13.43;1.92;;;9.30;99.90;;;;;;5033409;28;20192;-84
2023/12/11 12:12:32;;;;;;;14.32;1.30;;;9.20;99.90;;;;;;5049663;28;20073;-84
2023/12/11 12:15:02;;;;;;;14.07;2.80;;;9.30;99.90;;;;;;5052718;28;20126;-84
2023/12/11 12:17:28;;;;;;;15.70;1.48;;;9.40;99.90;;;;;;5141532;27;20108;-83
2023/12/11 12:19:53;;;;;;;15.35;1.30;;;9.80;99.90;;;;;;5135623;27;20421;-83
2023/12/11 12:22:19;;;;;;;7.07;1.30;;;9.10;99.90;;;;;;5134885;27;20051;-84
2023/12/11 12:24:48;;;;;;;10.75;1.65;;;9.30;99.90;;;;;;5136053;27;20059;-83
2023/12/11 12:27:18;;;;;;;18.83;2.30;;;9.40;99.90;;;;;;5135130;27;20055;-84
2023/12/11 12:29:45;;;;;;;9.85;1.58;;;9.10;99.90;;;;;;5134269;27;20069;-84
2023/12/11 12:32:13;;;;;;;11.50;1.50;;;9.10;99.90;;;;;;5135181;27;20054;-84
2023/12/11 12:34:44;;;;;;;15.75;1.90;;;9.40;99.90;;;;;;5134514;27;20092;-84
2023/12/11 12:37:10;;;;;;;10.40;1.52;;;9.40;99.90;;;;;;5135542;27;20364;-83
2023/12/11 12:39:37;;;;;;;14.40;1.40;;;9.00;99.90;;;;;;5153592;27;20039;-84
2023/12/11 12:42:03;;;;;;;15.10;1.73;;;9.00;99.90;;;;;;5135252;27;20070;-83
2023/12/11 12:44:29;;;;;;;8.88;1.38;;;9.00;99.90;;;;;;5135268;27;20050;-84